Time;durP1;ratioP1;P1;durP2;ratioP2;P2;SDS_P1;SDS_P2;PMS_P1;PMS_P2;Temp;Humidity;BMP_temperature;BMP_pressure;BME280_temperature;BME280_humidity;BME280_pressure;Samples;Min_cycle;Max_cycle;Signal;HPM_P1;HPM_P2
2021/07/30 00:01:08;;;;;;;0.85;0.85;;;25.70;50.10;;;;;;5154565;27;20116;-53
2021/07/30 00:03:34;;;;;;;0.77;0.77;;;25.70;50.20;;;;;;5154888;27;20103;-50
2021/07/30 00:05:59;;;;;;;0.80;0.80;;;25.70;50.20;;;;;;5154350;27;20103;-50
2021/07/30 00:08:25;;;;;;;0.85;0.80;;;25.70;50.20;;;;;;5154120;27;20051;-55
2021/07/30 00:10:54;;;;;;;0.75;0.75;;;25.70;50.20;;;;;;5154389;27;20050;-53
2021/07/30 00:13:20;;;;;;;0.93;0.77;;;25.60;50.20;;;;;;5154823;27;20050;-51
2021/07/30 00:15:45;;;;;;;0.82;0.80;;;25.60;50.20;;;;;;5154269;27;20058;-52
2021/07/30 00:18:11;;;;;;;0.93;0.80;;;25.60;50.20;;;;;;5154131;27;20383;-53
2021/07/30 00:20:36;;;;;;;0.70;0.70;;;25.60;50.30;;;;;;5133662;27;20491;-52
2021/07/30 00:23:02;;;;;;;0.75;0.70;;;25.60;50.20;;;;;;5154505;27;20438;-51
2021/07/30 00:25:28;;;;;;;0.80;0.65;;;25.60;50.30;;;;;;5154007;27;20099;-52
2021/07/30 00:27:53;;;;;;;0.88;0.88;;;25.60;50.30;;;;;;5154447;27;20046;-52
2021/07/30 00:30:19;;;;;;;1.10;1.02;;;25.60;50.30;;;;;;5135296;27;20051;-49
2021/07/30 00:32:45;;;;;;;0.63;0.63;;;25.60;50.30;;;;;;5153994;27;20050;-51
2021/07/30 00:35:10;;;;;;;0.80;0.80;;;25.60;50.40;;;;;;5154018;27;20039;-51
2021/07/30 00:37:39;;;;;;;0.70;0.70;;;25.60;50.30;;;;;;5153688;27;20073;-51
2021/07/30 00:40:06;;;;;;;0.63;0.63;;;25.60;50.40;;;;;;5154254;27;20562;-52
2021/07/30 00:42:32;;;;;;;1.42;1.00;;;25.60;50.40;;;;;;5153965;27;20232;-51
2021/07/30 00:45:01;;;;;;;0.90;0.90;;;25.60;50.40;;;;;;5154278;27;20039;-51
2021/07/30 00:47:30;;;;;;;0.98;0.98;;;25.50;50.30;;;;;;5153802;27;20103;-52
2021/07/30 00:49:58;;;;;;;0.77;0.77;;;25.50;50.40;;;;;;5153705;27;20057;-49
2021/07/30 00:52:26;;;;;;;1.00;0.90;;;25.50;50.40;;;;;;5153744;27;20047;-51
2021/07/30 00:54:52;;;;;;;0.60;0.60;;;25.50;50.40;;;;;;5156932;27;20055;-51
2021/07/30 00:57:18;;;;;;;0.80;0.80;;;25.50;50.40;;;;;;5157697;27;20394;-55
2021/07/30 00:59:44;;;;;;;0.80;0.70;;;25.50;50.40;;;;;;5157194;27;20115;-51
2021/07/30 01:02:11;;;;;;;0.80;0.80;;;25.50;50.50;;;;;;5157344;27;20047;-52
2021/07/30 01:04:37;;;;;;;0.98;0.88;;;25.50;50.40;;;;;;5157321;27;20101;-54
2021/07/30 01:07:03;;;;;;;0.85;0.85;;;25.50;50.50;;;;;;5157578;27;20447;-52
2021/07/30 01:09:28;;;;;;;0.80;0.80;;;25.40;50.40;;;;;;5157311;27;20053;-50
2021/07/30 01:11:54;;;;;;;1.08;0.98;;;25.40;50.40;;;;;;5157079;27;20137;-50
2021/07/30 01:14:20;;;;;;;1.17;0.90;;;25.40;50.40;;;;;;5157379;27;20055;-52
2021/07/30 01:16:46;;;;;;;0.98;0.80;;;25.40;50.50;;;;;;5157418;27;20054;-52
2021/07/30 01:19:23;;;;;;;0.65;0.65;;;25.40;50.50;;;;;;5156822;27;20057;-52
2021/07/30 01:21:52;;;;;;;0.77;0.75;;;25.40;50.50;;;;;;5138947;27;20047;-49
2021/07/30 01:24:19;;;;;;;0.70;0.70;;;25.40;50.60;;;;;;5157017;27;20476;-49
2021/07/30 01:26:44;;;;;;;0.95;0.80;;;25.40;50.60;;;;;;5156949;27;20383;-51
2021/07/30 01:29:10;;;;;;;0.73;0.73;;;25.40;50.60;;;;;;5156707;27;20046;-47
2021/07/30 01:31:36;;;;;;;0.60;0.60;;;25.40;50.60;;;;;;5157042;27;20042;-50
2021/07/30 01:34:04;;;;;;;0.70;0.70;;;25.40;50.60;;;;;;5156856;27;20068;-50
2021/07/30 01:36:30;;;;;;;1.10;0.98;;;25.40;50.60;;;;;;5156774;27;20186;-50
2021/07/30 01:38:56;;;;;;;1.05;0.95;;;25.40;50.60;;;;;;5156310;27;20676;-50
2021/07/30 01:41:21;;;;;;;0.77;0.77;;;25.30;50.60;;;;;;5156610;27;20061;-53
2021/07/30 01:43:47;;;;;;;0.80;0.80;;;25.30;50.60;;;;;;5156465;27;20043;-56
2021/07/30 01:46:12;;;;;;;0.90;0.80;;;25.30;50.60;;;;;;5156439;27;20054;-49
2021/07/30 01:48:38;;;;;;;0.70;0.70;;;25.30;50.70;;;;;;5156443;27;20058;-53
2021/07/30 01:51:05;;;;;;;1.23;0.88;;;25.30;50.70;;;;;;5156345;27;20531;-47
2021/07/30 01:53:30;;;;;;;0.70;0.70;;;25.30;50.60;;;;;;5156534;27;20059;-56
2021/07/30 01:55:56;;;;;;;0.75;0.75;;;25.30;50.70;;;;;;5138323;27;20103;-52
2021/07/30 01:58:22;;;;;;;0.60;0.60;;;25.30;50.70;;;;;;5156335;27;20099;-51
2021/07/30 02:00:47;;;;;;;0.80;0.80;;;25.30;50.70;;;;;;5156658;27;20057;-52
2021/07/30 02:03:13;;;;;;;0.70;0.70;;;25.30;50.80;;;;;;5156308;27;20406;-51
2021/07/30 02:05:39;;;;;;;0.80;0.80;;;25.20;50.70;;;;;;5155900;27;20052;-53
2021/07/30 02:08:06;;;;;;;1.00;0.88;;;25.20;50.70;;;;;;5156067;27;20058;-54
2021/07/30 02:10:32;;;;;;;0.95;0.90;;;25.30;50.80;;;;;;5156513;27;20080;-50
2021/07/30 02:15:42;;;;;;;0.80;0.80;;;25.20;50.70;;;;;;5156743;27;20050;-53
2021/07/30 02:18:08;;;;;;;0.82;0.75;;;25.20;50.80;;;;;;5156120;27;20406;-51
2021/07/30 02:20:34;;;;;;;0.70;0.70;;;25.20;51.30;;;;;;5155863;27;20133;-52
2021/07/30 02:22:59;;;;;;;0.93;0.80;;;25.20;50.80;;;;;;5156325;27;20161;-51
2021/07/30 02:25:25;;;;;;;0.80;0.80;;;25.20;50.80;;;;;;5135628;27;20046;-52
2021/07/30 02:27:50;;;;;;;1.17;0.70;;;25.20;50.90;;;;;;5155816;27;20482;-51
2021/07/30 02:30:16;;;;;;;0.80;0.80;;;25.20;50.90;;;;;;5156172;27;20509;-49
2021/07/30 02:32:41;;;;;;;0.77;0.77;;;25.20;50.90;;;;;;5155873;27;20047;-52
2021/07/30 02:35:07;;;;;;;1.00;0.80;;;25.20;50.90;;;;;;5155860;27;20050;-49
2021/07/30 02:37:33;;;;;;;0.60;0.60;;;25.10;50.80;;;;;;5155782;27;20047;-50
2021/07/30 02:39:58;;;;;;;0.70;0.70;;;25.10;50.90;;;;;;5155685;27;20062;-51
2021/07/30 02:42:24;;;;;;;1.00;0.90;;;25.20;50.90;;;;;;5156316;27;20397;-53
2021/07/30 02:44:50;;;;;;;0.80;0.80;;;25.10;50.90;;;;;;5156192;27;20074;-52
2021/07/30 02:47:16;;;;;;;0.70;0.70;;;25.10;50.90;;;;;;5156221;27;20046;-51
2021/07/30 02:49:41;;;;;;;0.75;0.75;;;25.20;51.00;;;;;;5155579;27;20050;-51
2021/07/30 02:52:07;;;;;;;0.82;0.80;;;25.10;50.90;;;;;;5155971;27;20134;-48
2021/07/30 02:54:33;;;;;;;0.85;0.85;;;25.10;50.90;;;;;;5155778;27;20055;-52
2021/07/30 02:56:58;;;;;;;0.70;0.68;;;25.10;50.90;;;;;;5156138;27;20542;-53
2021/07/30 02:59:24;;;;;;;0.70;0.70;;;25.00;50.90;;;;;;5155716;27;20042;-51
2021/07/30 03:01:49;;;;;;;0.70;0.70;;;25.10;51.00;;;;;;5155619;27;20096;-54
2021/07/30 03:04:15;;;;;;;0.80;0.80;;;25.10;51.00;;;;;;5155678;27;20138;-52
2021/07/30 03:06:40;;;;;;;0.77;0.77;;;25.10;51.00;;;;;;5155415;27;20110;-52
2021/07/30 03:09:06;;;;;;;0.70;0.70;;;25.00;51.00;;;;;;5155321;27;20054;-52
2021/07/30 03:11:34;;;;;;;0.70;0.70;;;25.00;51.00;;;;;;5155214;27;20064;-54
2021/07/30 03:14:00;;;;;;;0.80;0.80;;;25.00;51.00;;;;;;5155246;27;20497;-50
2021/07/30 03:16:26;;;;;;;0.77;0.77;;;25.00;51.60;;;;;;5154350;27;20055;-51
2021/07/30 03:18:51;;;;;;;0.73;0.73;;;25.00;51.00;;;;;;5154996;27;20061;-49
2021/07/30 03:21:17;;;;;;;0.73;0.73;;;25.00;51.10;;;;;;5155032;27;20049;-49
2021/07/30 03:23:42;;;;;;;0.60;0.60;;;25.00;51.10;;;;;;5136066;27;20051;-48
2021/07/30 03:26:08;;;;;;;0.70;0.70;;;25.00;51.10;;;;;;5155500;27;20054;-52
2021/07/30 03:28:33;;;;;;;0.70;0.70;;;25.00;51.10;;;;;;5155110;27;20480;-48
2021/07/30 03:31:00;;;;;;;0.75;0.75;;;25.00;51.10;;;;;;5154832;27;20110;-50
2021/07/30 03:33:26;;;;;;;0.80;0.80;;;25.00;51.10;;;;;;5154920;27;20047;-49
2021/07/30 03:35:51;;;;;;;0.95;0.90;;;25.00;51.10;;;;;;5154899;27;20068;-49
2021/07/30 03:38:17;;;;;;;0.95;0.90;;;25.00;51.10;;;;;;5154726;27;20555;-48
2021/07/30 03:40:43;;;;;;;1.05;0.80;;;25.00;51.10;;;;;;5155092;27;20474;-51
2021/07/30 03:43:09;;;;;;;0.77;0.77;;;24.90;51.10;;;;;;5155085;27;20054;-47
2021/07/30 03:45:34;;;;;;;1.42;0.75;;;25.00;51.10;;;;;;5154646;27;20137;-49
2021/07/30 03:48:00;;;;;;;0.80;0.80;;;24.90;51.10;;;;;;5154557;27;20398;-47
2021/07/30 03:50:26;;;;;;;0.70;0.70;;;25.00;51.10;;;;;;5155240;27;20047;-48
2021/07/30 03:52:51;;;;;;;0.93;0.80;;;25.00;51.10;;;;;;5154636;27;20526;-49
2021/07/30 03:55:17;;;;;;;0.70;0.70;;;25.00;51.00;;;;;;5155077;27;20183;-51
2021/07/30 03:57:42;;;;;;;1.42;1.00;;;25.00;51.00;;;;;;5155095;27;20085;-48
2021/07/30 04:00:08;;;;;;;0.98;0.93;;;25.00;51.00;;;;;;5154618;27;20077;-48
2021/07/30 04:02:35;;;;;;;0.77;0.77;;;25.10;50.90;;;;;;5154425;27;20482;-48
2021/07/30 04:05:00;;;;;;;0.80;0.80;;;25.10;50.90;;;;;;5154604;27;20129;-48
2021/07/30 04:07:26;;;;;;;0.80;0.80;;;25.10;50.90;;;;;;5154458;27;20478;-49
2021/07/30 04:09:54;;;;;;;1.00;0.90;;;25.10;50.80;;;;;;5154944;27;20386;-47
2021/07/30 04:12:20;;;;;;;1.17;1.08;;;25.20;50.80;;;;;;5154254;27;20103;-48
2021/07/30 04:14:45;;;;;;;0.77;0.77;;;25.20;50.70;;;;;;5154334;27;20054;-49
2021/07/30 04:17:11;;;;;;;0.90;0.90;;;25.20;50.70;;;;;;5154343;27;20047;-50
2021/07/30 04:19:37;;;;;;;0.80;0.80;;;25.20;50.50;;;;;;5154245;27;20051;-49
2021/07/30 04:22:03;;;;;;;0.70;0.70;;;25.30;50.60;;;;;;5118905;27;20054;-50
2021/07/30 04:24:28;;;;;;;0.82;0.70;;;25.30;50.50;;;;;;5154462;27;20406;-49
2021/07/30 04:26:54;;;;;;;0.75;0.75;;;25.40;50.50;;;;;;5154657;27;20475;-52
2021/07/30 04:29:19;;;;;;;0.80;0.80;;;25.40;50.40;;;;;;5157471;27;20508;-48
2021/07/30 04:31:45;;;;;;;0.90;0.90;;;25.40;50.30;;;;;;5157767;27;20099;-47
2021/07/30 04:34:11;;;;;;;0.70;0.70;;;25.40;50.20;;;;;;5139138;27;20406;-53
2021/07/30 04:36:37;;;;;;;0.77;0.70;;;25.50;50.20;;;;;;5157756;27;20486;-49
2021/07/30 04:39:03;;;;;;;0.70;0.70;;;25.50;50.20;;;;;;5157718;27;20473;-50
2021/07/30 04:41:29;;;;;;;0.90;0.77;;;25.50;50.10;;;;;;5157676;27;20074;-49
2021/07/30 04:43:55;;;;;;;1.20;1.10;;;25.60;50.10;;;;;;5158003;27;20126;-51
2021/07/30 04:46:20;;;;;;;0.65;0.60;;;25.60;50.00;;;;;;5157861;27;20046;-49
2021/07/30 04:48:46;;;;;;;0.90;0.90;;;25.60;49.90;;;;;;5157412;27;20055;-49
2021/07/30 04:51:12;;;;;;;0.70;0.70;;;25.70;49.90;;;;;;5157246;27;20046;-51
2021/07/30 04:53:38;;;;;;;0.80;0.80;;;25.70;49.80;;;;;;5157621;27;20105;-47
2021/07/30 04:56:04;;;;;;;0.90;0.70;;;25.80;49.70;;;;;;5157780;27;20367;-51
2021/07/30 04:58:30;;;;;;;0.60;0.60;;;25.80;49.70;;;;;;5157571;27;20073;-53
2021/07/30 05:00:56;;;;;;;0.80;0.80;;;25.80;49.60;;;;;;5157524;27;20486;-53
2021/07/30 05:03:21;;;;;;;0.75;0.75;;;25.90;49.60;;;;;;5157336;27;20078;-49
2021/07/30 05:05:47;;;;;;;0.80;0.80;;;25.90;49.40;;;;;;5157520;27;20050;-50
2021/07/30 05:08:12;;;;;;;0.60;0.60;;;25.90;49.40;;;;;;5157466;27;20549;-50
2021/07/30 05:10:38;;;;;;;1.05;0.93;;;26.00;49.40;;;;;;5157290;27;20490;-50
2021/07/30 05:13:04;;;;;;;0.98;0.88;;;26.00;49.30;;;;;;5157301;27;20043;-51
2021/07/30 05:15:30;;;;;;;1.70;1.00;;;26.00;49.20;;;;;;5157030;27;20046;-52
2021/07/30 05:17:58;;;;;;;0.70;0.70;;;26.00;49.20;;;;;;5157716;27;20166;-47
2021/07/30 05:20:24;;;;;;;0.88;0.70;;;26.00;49.10;;;;;;5157095;27;20050;-46
2021/07/30 05:22:49;;;;;;;1.15;0.70;;;26.00;49.10;;;;;;5156966;27;20054;-51
2021/07/30 05:25:15;;;;;;;0.70;0.70;;;26.10;49.10;;;;;;5156979;27;20057;-48
2021/07/30 05:27:41;;;;;;;0.80;0.80;;;26.10;49.10;;;;;;5156671;27;20158;-49
2021/07/30 05:30:07;;;;;;;1.00;0.90;;;26.20;49.10;;;;;;5156865;27;20082;-46
2021/07/30 05:32:33;;;;;;;0.70;0.70;;;26.20;49.10;;;;;;5156779;27;20046;-51
2021/07/30 05:34:58;;;;;;;1.13;0.80;;;26.20;49.00;;;;;;5156732;27;20065;-49
2021/07/30 05:37:24;;;;;;;1.00;0.90;;;26.20;49.00;;;;;;5156843;27;20078;-53
2021/07/30 05:39:49;;;;;;;0.95;0.80;;;26.20;48.90;;;;;;5137311;27;20057;-48
2021/07/30 05:42:15;;;;;;;0.70;0.70;;;26.30;49.00;;;;;;5156963;27;20043;-48
2021/07/30 05:44:40;;;;;;;0.70;0.70;;;26.30;48.90;;;;;;5156566;27;20046;-49
2021/07/30 05:47:06;;;;;;;1.00;0.90;;;26.30;48.80;;;;;;5138040;27;20046;-46
2021/07/30 05:49:34;;;;;;;0.63;0.63;;;26.30;48.80;;;;;;5156452;27;20478;-52
2021/07/30 05:51:59;;;;;;;0.65;0.65;;;26.40;48.80;;;;;;5136546;27;20055;-49
2021/07/30 05:54:25;;;;;;;0.80;0.65;;;26.50;48.80;;;;;;5157136;27;20046;-51
2021/07/30 05:56:55;;;;;;;0.95;0.70;;;26.40;48.60;;;;;;5156390;27;20063;-49
2021/07/30 05:59:21;;;;;;;1.15;0.90;;;26.50;48.50;;;;;;5156505;27;20111;-48
2021/07/30 06:01:47;;;;;;;1.42;0.90;;;26.50;48.50;;;;;;5156256;27;20047;-49
2021/07/30 06:04:14;;;;;;;1.00;0.80;;;26.60;48.40;;;;;;5156221;27;20058;-46
2021/07/30 06:06:41;;;;;;;0.80;0.80;;;26.60;48.30;;;;;;5156539;27;20051;-46
2021/07/30 06:09:08;;;;;;;1.45;0.88;;;26.60;48.30;;;;;;5156398;27;20062;-48
2021/07/30 06:11:35;;;;;;;1.20;0.85;;;26.70;48.30;;;;;;5155928;27;20094;-50
2021/07/30 06:14:01;;;;;;;0.70;0.70;;;26.70;48.20;;;;;;5156239;27;20046;-46
2021/07/30 06:16:27;;;;;;;0.77;0.77;;;26.80;48.20;;;;;;5156045;27;20470;-48
2021/07/30 06:18:52;;;;;;;1.48;0.85;;;26.80;48.00;;;;;;5155984;27;20546;-49
2021/07/30 06:21:19;;;;;;;1.05;0.85;;;26.90;48.00;;;;;;5155835;27;20402;-46
2021/07/30 06:23:45;;;;;;;1.75;0.70;;;26.90;47.90;;;;;;5156190;27;20142;-49
2021/07/30 06:26:10;;;;;;;1.75;0.70;;;26.90;47.80;;;;;;5156279;27;20093;-48
2021/07/30 06:28:36;;;;;;;0.88;0.88;;;26.90;47.80;;;;;;5155640;27;20059;-49
2021/07/30 06:31:01;;;;;;;0.75;0.75;;;27.00;47.70;;;;;;5155850;27;20050;-48
2021/07/30 06:33:28;;;;;;;0.60;0.60;;;27.00;47.60;;;;;;5156301;27;20053;-48
2021/07/30 06:35:55;;;;;;;0.60;0.60;;;27.10;47.60;;;;;;5155712;27;20054;-49
2021/07/30 06:38:20;;;;;;;1.15;0.93;;;27.20;47.60;;;;;;5156217;27;20070;-48
2021/07/30 06:40:46;;;;;;;1.25;0.90;;;27.20;47.50;;;;;;5155701;27;20508;-46
2021/07/30 06:43:12;;;;;;;0.65;0.65;;;27.20;47.30;;;;;;5155692;27;20058;-50
2021/07/30 06:45:38;;;;;;;0.70;0.70;;;27.30;47.30;;;;;;5155553;27;20047;-47
2021/07/30 06:48:03;;;;;;;0.80;0.80;;;27.30;47.20;;;;;;5155516;27;20055;-51
2021/07/30 06:50:29;;;;;;;0.75;0.75;;;27.30;47.10;;;;;;5155273;27;20051;-50
2021/07/30 06:52:55;;;;;;;0.80;0.80;;;27.40;47.10;;;;;;5154898;27;20074;-48
2021/07/30 06:55:20;;;;;;;0.80;0.80;;;27.40;46.90;;;;;;5156072;27;20133;-52
2021/07/30 06:57:46;;;;;;;0.70;0.70;;;27.50;46.90;;;;;;5155670;27;20161;-49
2021/07/30 07:00:13;;;;;;;0.90;0.77;;;27.50;46.80;;;;;;5155931;27;20459;-53
2021/07/30 07:02:39;;;;;;;1.20;1.00;;;27.60;46.80;;;;;;5155349;27;20070;-49
2021/07/30 07:05:05;;;;;;;0.75;0.75;;;27.60;46.70;;;;;;5155546;27;20097;-49
2021/07/30 07:07:30;;;;;;;0.70;0.70;;;27.70;46.60;;;;;;5155150;27;20057;-49
2021/07/30 07:09:56;;;;;;;0.80;0.70;;;27.70;46.50;;;;;;5155577;27;20054;-47
2021/07/30 07:12:21;;;;;;;0.80;0.80;;;27.80;46.50;;;;;;5155050;27;20114;-48
2021/07/30 07:14:47;;;;;;;0.70;0.70;;;27.80;46.40;;;;;;5155058;27;20055;-52
2021/07/30 07:17:15;;;;;;;1.13;0.88;;;27.80;46.30;;;;;;5155035;27;20051;-48
2021/07/30 07:19:42;;;;;;;0.68;0.60;;;27.90;46.30;;;;;;5154666;27;20046;-49
2021/07/30 07:22:07;;;;;;;0.85;0.85;;;27.90;46.20;;;;;;5155597;27;20042;-52
2021/07/30 07:24:33;;;;;;;0.85;0.82;;;27.90;46.00;;;;;;5155119;27;20530;-52
2021/07/30 07:26:58;;;;;;;1.08;0.93;;;28.00;46.00;;;;;;5136373;27;20138;-52
2021/07/30 07:29:24;;;;;;;0.73;0.73;;;28.10;46.00;;;;;;5155040;27;20504;-51
2021/07/30 07:31:49;;;;;;;0.90;0.82;;;28.10;45.90;;;;;;5154899;27;20102;-51
2021/07/30 07:34:15;;;;;;;0.75;0.60;;;28.10;45.80;;;;;;5154837;27;20042;-52
2021/07/30 07:36:40;;;;;;;0.93;0.88;;;28.10;45.70;;;;;;5154892;27;20057;-51
2021/07/30 07:39:06;;;;;;;1.15;0.75;;;28.20;45.70;;;;;;5154991;27;20090;-50
2021/07/30 07:41:31;;;;;;;1.05;0.80;;;28.20;45.70;;;;;;5155390;27;20110;-52
2021/07/30 07:43:57;;;;;;;0.88;0.68;;;28.20;45.60;;;;;;5154453;27;20946;-55
2021/07/30 07:46:23;;;;;;;0.80;0.80;;;28.30;45.60;;;;;;5154406;27;20050;-47
2021/07/30 07:48:48;;;;;;;1.35;1.08;;;28.30;45.50;;;;;;5154216;27;20059;-49
2021/07/30 07:51:14;;;;;;;0.85;0.85;;;28.30;45.40;;;;;;5134475;27;20505;-51
2021/07/30 07:53:39;;;;;;;1.13;0.80;;;28.30;45.40;;;;;;5154243;27;20055;-50
2021/07/30 07:56:06;;;;;;;0.80;0.80;;;28.40;45.40;;;;;;5136310;27;20055;-46
2021/07/30 07:58:33;;;;;;;0.70;0.70;;;28.40;45.30;;;;;;5154837;27;20050;-51
2021/07/30 08:00:59;;;;;;;1.65;0.68;;;28.40;45.30;;;;;;5143706;27;20051;-53
2021/07/30 08:03:25;;;;;;;0.75;0.75;;;28.40;45.20;;;;;;5133183;27;20127;-46
2021/07/30 08:05:51;;;;;;;0.70;0.70;;;28.50;45.20;;;;;;5133520;28;20138;-53
2021/07/30 08:08:17;;;;;;;0.68;0.68;;;28.50;45.20;;;;;;5133685;28;20078;-49
2021/07/30 08:10:43;;;;;;;2.55;0.90;;;28.50;45.10;;;;;;5133910;28;20074;-48
2021/07/30 08:13:09;;;;;;;1.15;0.90;;;28.50;45.10;;;;;;5133426;28;20055;-50
2021/07/30 08:15:34;;;;;;;1.02;0.80;;;28.50;45.00;;;;;;5134159;28;20055;-50
2021/07/30 08:18:00;;;;;;;1.23;0.93;;;28.50;45.00;;;;;;5133869;28;20069;-52
2021/07/30 08:20:26;;;;;;;0.70;0.70;;;28.50;45.00;;;;;;5133368;28;20075;-48
2021/07/30 08:22:52;;;;;;;0.93;0.70;;;28.50;45.00;;;;;;5133578;28;20059;-51
2021/07/30 08:25:17;;;;;;;0.70;0.60;;;28.50;44.90;;;;;;5115065;28;20130;-52
2021/07/30 08:27:43;;;;;;;0.65;0.65;;;28.60;44.90;;;;;;5133637;28;20055;-54
2021/07/30 08:30:09;;;;;;;0.70;0.70;;;28.60;44.90;;;;;;5133200;28;20487;-53
2021/07/30 08:32:34;;;;;;;0.77;0.77;;;28.60;44.90;;;;;;5133925;28;20356;-52
2021/07/30 08:35:01;;;;;;;0.82;0.80;;;28.60;44.90;;;;;;5133888;28;20099;-50
2021/07/30 08:37:26;;;;;;;0.93;0.80;;;28.60;44.90;;;;;;5133160;28;20051;-53
2021/07/30 08:39:52;;;;;;;0.80;0.80;;;28.60;44.90;;;;;;5133585;28;20487;-52
2021/07/30 08:42:19;;;;;;;0.80;0.70;;;28.60;44.90;;;;;;5133613;28;20098;-55
2021/07/30 08:44:45;;;;;;;0.88;0.80;;;28.60;44.80;;;;;;5133821;28;20051;-53
2021/07/30 08:47:12;;;;;;;0.70;0.70;;;28.60;44.80;;;;;;5133245;28;20139;-54
2021/07/30 08:49:38;;;;;;;1.17;0.80;;;28.60;44.80;;;;;;5133453;28;20055;-52
2021/07/30 08:52:11;;;;;;;1.52;0.80;;;28.60;44.80;;;;;;5114534;28;20047;-49
2021/07/30 08:54:40;;;;;;;1.70;1.08;;;28.60;44.80;;;;;;5133406;28;20054;-49
2021/07/30 08:57:12;;;;;;;1.00;0.90;;;28.60;44.80;;;;;;5133222;28;20049;-53
2021/07/30 08:59:39;;;;;;;0.77;0.77;;;28.60;44.90;;;;;;5133072;28;20054;-52
2021/07/30 09:02:06;;;;;;;0.70;0.70;;;28.60;44.90;;;;;;5133322;28;20047;-49
2021/07/30 09:04:32;;;;;;;0.70;0.70;;;28.50;44.80;;;;;;5114433;28;20404;-49
2021/07/30 09:07:00;;;;;;;1.75;1.02;;;28.50;44.90;;;;;;5132755;28;20060;-52
2021/07/30 09:09:26;;;;;;;0.98;0.90;;;28.50;44.90;;;;;;5133246;28;20051;-51
2021/07/30 09:12:00;;;;;;;1.10;1.05;;;28.50;44.90;;;;;;5128864;28;20050;-52
2021/07/30 09:14:44;;;;;;;1.23;0.90;;;28.50;44.90;;;;;;5112150;28;20124;-53
2021/07/30 09:17:10;;;;;;;0.98;0.80;;;28.50;44.90;;;;;;5136304;28;20047;-51
2021/07/30 09:20:03;;;;;;;0.88;0.80;;;28.50;44.90;;;;;;5117690;28;20051;-54
2021/07/30 09:22:28;;;;;;;0.80;0.80;;;28.50;45.00;;;;;;5136357;28;20050;-54
2021/07/30 09:24:58;;;;;;;1.02;0.88;;;28.50;44.90;;;;;;5136164;28;20130;-53
2021/07/30 09:27:24;;;;;;;1.35;0.95;;;28.50;45.00;;;;;;5136015;28;20074;-47
2021/07/30 09:29:49;;;;;;;1.13;0.82;;;28.50;44.90;;;;;;5136501;28;20462;-47
2021/07/30 09:32:17;;;;;;;0.85;0.80;;;28.50;44.90;;;;;;5136104;28;20078;-49
2021/07/30 09:34:45;;;;;;;0.68;0.68;;;28.50;44.90;;;;;;5136442;28;20112;-53
2021/07/30 09:37:13;;;;;;;1.00;0.90;;;28.50;44.90;;;;;;5136079;28;20560;-51
2021/07/30 09:39:47;;;;;;;0.98;0.90;;;28.50;44.90;;;;;;5117391;28;20051;-51
2021/07/30 09:42:14;;;;;;;0.90;0.90;;;28.50;44.80;;;;;;5135959;28;20040;-52
2021/07/30 09:44:48;;;;;;;0.80;0.70;;;28.50;44.80;;;;;;5135912;28;20059;-47
2021/07/30 09:47:21;;;;;;;0.80;0.80;;;28.50;44.80;;;;;;5136214;28;20111;-50
2021/07/30 09:49:55;;;;;;;0.70;0.70;;;28.60;44.80;;;;;;5117332;28;20534;-51
2021/07/30 09:52:28;;;;;;;0.73;0.73;;;28.60;44.80;;;;;;5135843;28;20402;-51
2021/07/30 09:54:58;;;;;;;1.35;0.88;;;28.60;44.70;;;;;;5136145;28;20100;-50
2021/07/30 09:57:26;;;;;;;0.80;0.80;;;28.60;44.70;;;;;;5117198;28;20133;-52
2021/07/30 09:59:57;;;;;;;0.80;0.70;;;28.60;44.60;;;;;;5136021;28;20058;-52
2021/07/30 10:02:24;;;;;;;;;;;28.60;44.70;;;;;;5136328;28;20050;-49
2021/07/30 10:04:51;;;;;;;0.90;0.80;;;28.70;44.80;;;;;;5117093;28;19915;-48
2021/07/30 10:07:21;;;;;;;0.80;0.68;;;28.70;44.60;;;;;;5135494;28;20592;-54
2021/07/30 10:10:11;;;;;;;0.90;0.90;;;28.70;44.60;;;;;;5135866;28;20058;-52
2021/07/30 10:12:41;;;;;;;1.42;0.70;;;28.70;44.60;;;;;;5135466;28;20149;-51
2021/07/30 10:15:08;;;;;;;0.63;0.63;;;28.70;44.50;;;;;;5135964;28;20051;-48
2021/07/30 10:17:36;;;;;;;0.85;0.75;;;28.70;44.40;;;;;;5135332;28;20054;-51
2021/07/30 10:20:05;;;;;;;0.90;0.90;;;28.70;44.40;;;;;;5135491;28;20051;-50
2021/07/30 10:22:40;;;;;;;0.70;0.70;;;28.80;44.40;;;;;;5135306;28;20049;-50
2021/07/30 10:25:09;;;;;;;0.80;0.80;;;28.80;44.40;;;;;;5135122;27;20054;-49
2021/07/30 10:27:41;;;;;;;1.67;0.85;;;28.80;44.50;;;;;;5135076;28;20490;-51
2021/07/30 10:30:12;;;;;;;0.60;0.60;;;28.80;44.30;;;;;;5135284;28;20059;-46
2021/07/30 10:32:45;;;;;;;0.80;0.75;;;28.80;44.30;;;;;;5135127;28;20046;-48
2021/07/30 10:35:12;;;;;;;0.80;0.80;;;28.80;44.30;;;;;;5135542;28;20071;-50
2021/07/30 10:37:42;;;;;;;0.70;0.70;;;28.90;44.20;;;;;;5115408;28;20471;-51
2021/07/30 10:40:21;;;;;;;0.80;0.70;;;28.90;44.20;;;;;;5135758;28;20049;-52
2021/07/30 10:43:09;;;;;;;1.00;0.80;;;28.80;44.20;;;;;;5135126;28;20082;-50
2021/07/30 10:45:36;;;;;;;0.70;0.70;;;28.90;44.30;;;;;;5116878;28;20058;-49
2021/07/30 10:48:13;;;;;;;1.20;0.80;;;28.90;44.20;;;;;;5134913;28;20144;-47
2021/07/30 10:51:02;;;;;;;0.73;0.73;;;28.90;44.30;;;;;;5134931;28;20487;-48
2021/07/30 10:53:30;;;;;;;1.98;0.70;;;28.90;44.20;;;;;;5134759;28;20109;-51
2021/07/30 10:55:56;;;;;;;1.85;0.93;;;28.90;44.10;;;;;;5135155;28;20375;-48
2021/07/30 10:58:42;;;;;;;1.73;1.00;;;28.90;44.10;;;;;;5135445;28;20050;-48
2021/07/30 11:01:13;;;;;;;0.90;0.90;;;28.90;44.10;;;;;;5115987;28;20376;-50
2021/07/30 11:03:50;;;;;;;0.80;0.80;;;28.90;44.10;;;;;;5134779;28;20058;-47
2021/07/30 11:06:24;;;;;;;0.70;0.70;;;28.90;44.20;;;;;;5134410;28;20467;-50
2021/07/30 11:09:02;;;;;;;1.60;1.10;;;28.90;44.10;;;;;;5134335;28;20112;-49
2021/07/30 11:11:40;;;;;;;1.27;0.70;;;28.90;44.10;;;;;;5134327;28;20076;-51
2021/07/30 11:14:11;;;;;;;0.90;0.90;;;28.90;44.10;;;;;;5134715;28;20513;-52
2021/07/30 11:16:37;;;;;;;0.90;0.90;;;28.90;44.10;;;;;;5134490;28;20360;-51
2021/07/30 11:19:04;;;;;;;1.00;0.77;;;28.90;44.10;;;;;;5134320;28;20054;-49
2021/07/30 11:21:30;;;;;;;0.90;0.70;;;28.90;44.10;;;;;;5134346;28;20054;-52
2021/07/30 11:24:00;;;;;;;1.00;0.90;;;28.90;44.10;;;;;;5134357;28;20051;-51
2021/07/30 11:26:25;;;;;;;1.10;0.82;;;28.90;44.10;;;;;;5134016;28;20077;-51
2021/07/30 11:29:12;;;;;;;0.65;0.65;;;28.90;44.10;;;;;;5134547;28;20090;-50
2021/07/30 11:31:54;;;;;;;0.95;0.90;;;28.90;44.10;;;;;;5134169;28;20039;-48
2021/07/30 11:34:29;;;;;;;0.98;0.93;;;28.90;44.10;;;;;;5134446;28;20047;-50
2021/07/30 11:37:02;;;;;;;0.90;0.77;;;28.90;44.10;;;;;;5133221;27;20058;-50
2021/07/30 11:39:39;;;;;;;0.75;0.75;;;28.90;44.10;;;;;;5134276;28;20043;-52
2021/07/30 11:42:06;;;;;;;1.10;1.00;;;28.90;44.10;;;;;;5134465;28;20039;-52
2021/07/30 11:44:52;;;;;;;0.60;0.60;;;28.90;44.00;;;;;;5134365;28;20540;-52
2021/07/30 11:47:19;;;;;;;0.80;0.75;;;28.90;44.60;;;;;;5133686;28;20487;-52
2021/07/30 11:49:48;;;;;;;0.80;0.80;;;28.90;44.00;;;;;;5133912;28;20055;-49
2021/07/30 11:52:21;;;;;;;1.23;1.00;;;28.90;44.00;;;;;;5133881;28;20043;-53
2021/07/30 11:54:47;;;;;;;1.10;0.80;;;28.90;44.00;;;;;;5133912;28;20122;-50
2021/07/30 11:57:25;;;;;;;1.38;1.00;;;29.00;44.00;;;;;;5133798;28;20478;-52
2021/07/30 11:59:51;;;;;;;0.95;0.88;;;29.00;44.00;;;;;;5133894;28;20043;-47
2021/07/30 12:02:16;;;;;;;0.70;0.70;;;29.00;43.90;;;;;;5133831;28;20119;-49
2021/07/30 12:04:54;;;;;;;0.93;0.88;;;29.00;43.90;;;;;;5134281;28;20467;-49
2021/07/30 12:07:27;;;;;;;0.90;0.90;;;29.00;43.90;;;;;;5133479;28;20475;-48
2021/07/30 12:10:00;;;;;;;0.80;0.80;;;29.00;43.80;;;;;;5133620;28;20054;-48
2021/07/30 12:12:28;;;;;;;0.80;0.80;;;29.00;43.80;;;;;;5133722;28;20092;-51
2021/07/30 12:14:55;;;;;;;0.68;0.68;;;29.00;43.90;;;;;;5133539;28;20055;-48
2021/07/30 12:17:21;;;;;;;0.80;0.80;;;29.00;43.80;;;;;;5133555;28;20131;-53
2021/07/30 12:20:08;;;;;;;0.80;0.80;;;29.00;43.90;;;;;;5133345;28;20055;-47
2021/07/30 12:22:47;;;;;;;0.75;0.75;;;29.00;43.90;;;;;;5133841;28;20043;-48
2021/07/30 12:25:31;;;;;;;0.70;0.70;;;29.00;43.90;;;;;;5115389;28;20142;-48
2021/07/30 12:28:11;;;;;;;1.02;0.90;;;29.00;43.90;;;;;;5113055;28;20055;-48
2021/07/30 12:30:39;;;;;;;2.13;0.98;;;29.00;43.90;;;;;;5133383;28;20047;-49
2021/07/30 12:33:23;;;;;;;1.15;0.85;;;29.00;43.80;;;;;;5133619;28;20130;-49
2021/07/30 12:36:00;;;;;;;0.95;0.82;;;29.00;43.90;;;;;;5133729;28;20078;-49
2021/07/30 12:38:25;;;;;;;0.80;0.80;;;29.00;44.40;;;;;;5133134;28;20478;-48
2021/07/30 12:40:51;;;;;;;0.60;0.60;;;29.00;43.90;;;;;;5133260;28;20055;-49
2021/07/30 12:43:18;;;;;;;0.80;0.80;;;29.00;43.90;;;;;;5133370;28;20483;-50
2021/07/30 12:45:50;;;;;;;0.98;0.88;;;29.00;43.90;;;;;;5133217;28;20503;-47
2021/07/30 12:48:21;;;;;;;1.15;1.02;;;29.00;43.90;;;;;;5133668;27;20054;-51
2021/07/30 12:50:48;;;;;;;0.93;0.88;;;29.00;43.80;;;;;;5136873;28;20075;-47
2021/07/30 12:53:18;;;;;;;1.00;0.90;;;29.00;43.70;;;;;;5136745;28;20054;-49